createdAt,value
2022-10-11T00:00:09.093Z,57.70
2022-10-11T00:03:09.963Z,57.79
2022-10-11T00:05:47.910Z,57.41
2022-10-11T00:08:20.216Z,57.41
2022-10-11T00:10:59.000Z,57.05
2022-10-11T00:13:30.154Z,57.28
2022-10-11T00:16:01.021Z,57.20
2022-10-11T00:18:30.936Z,56.95
2022-10-11T00:21:05.822Z,57.33
2022-10-11T00:23:38.263Z,57.29
2022-10-11T00:26:11.191Z,57.19
2022-10-11T00:28:41.653Z,56.86
2022-10-11T00:31:14.832Z,56.98
2022-10-11T00:33:44.785Z,57.63
2022-10-11T00:36:17.272Z,57.45
2022-10-11T00:38:49.806Z,57.17
2022-10-11T00:41:20.099Z,56.75
2022-10-11T00:43:49.842Z,57.15
2022-10-11T00:46:32.914Z,56.74
2022-10-11T00:49:07.558Z,57.18
2022-10-11T00:51:45.900Z,56.62
2022-10-11T00:54:23.674Z,56.39
2022-10-11T00:56:57.139Z,56.16
2022-10-11T00:59:32.281Z,58.38
2022-10-11T01:02:02.096Z,56.96
2022-10-11T01:04:32.187Z,56.91
2022-10-11T01:07:02.483Z,57.13
2022-10-11T01:09:36.118Z,56.77
2022-10-11T01:12:15.007Z,57.12
2022-10-11T01:15:09.718Z,57.45
2022-10-11T01:17:52.393Z,57.55
2022-10-11T01:20:34.896Z,57.58
2022-10-11T01:23:34.957Z,57.72
2022-10-11T01:26:28.656Z,57.79
2022-10-11T01:29:13.487Z,57.36
2022-10-11T01:31:52.070Z,57.56
2022-10-11T01:34:30.245Z,57.16
2022-10-11T01:37:06.421Z,57.55
2022-10-11T01:39:41.616Z,57.73
2022-10-11T01:42:14.909Z,58.04
2022-10-11T01:44:49.323Z,58.52
2022-10-11T01:47:25.393Z,58.24
2022-10-11T01:49:57.775Z,57.97
2022-10-11T01:52:29.689Z,58.12
2022-10-11T01:55:16.757Z,58.46
2022-10-11T01:58:10.614Z,58.27
2022-10-11T02:00:52.246Z,58.47
2022-10-11T02:03:34.846Z,58.74
2022-10-11T02:06:11.693Z,59.07
2022-10-11T02:08:48.514Z,59.21
2022-10-11T02:11:24.875Z,59.05
2022-10-11T02:14:00.432Z,58.43
2022-10-11T02:16:37.630Z,58.62
2022-10-11T02:19:11.830Z,58.64
2022-10-11T02:21:46.422Z,58.99
2022-10-11T02:24:22.174Z,59.06
2022-10-11T02:26:56.320Z,58.91
2022-10-11T02:29:30.656Z,58.85
2022-10-11T02:32:02.678Z,58.76
2022-10-11T02:34:38.798Z,58.63
2022-10-11T02:37:14.544Z,59.02
2022-10-11T02:39:48.594Z,59.14
2022-10-11T02:42:26.989Z,59.34
2022-10-11T02:45:01.257Z,59.32
2022-10-11T02:47:34.046Z,58.89
2022-10-11T02:50:07.397Z,58.74
2022-10-11T02:52:37.463Z,59.17
2022-10-11T02:55:08.695Z,58.96
2022-10-11T02:57:38.869Z,59.37
2022-10-11T03:00:10.350Z,59.71
2022-10-11T03:02:40.947Z,60.25
2022-10-11T03:05:13.773Z,61.49
2022-10-11T03:07:44.192Z,61.84
2022-10-11T03:10:14.073Z,62.81
2022-10-11T03:12:43.818Z,63.13
2022-10-11T03:15:16.896Z,64.41
2022-10-11T03:17:46.675Z,65.10
2022-10-11T03:20:19.674Z,65.10
2022-10-11T03:22:49.523Z,65.66
2022-10-11T03:25:20.603Z,66.80
2022-10-11T03:27:50.589Z,67.39
2022-10-11T03:30:20.882Z,67.74
2022-10-11T03:32:50.691Z,67.92
2022-10-11T03:35:23.166Z,68.73
2022-10-11T03:37:53.405Z,68.95
2022-10-11T03:40:23.191Z,68.28
2022-10-11T03:42:54.750Z,68.46
2022-10-11T03:45:24.885Z,68.51
2022-10-11T03:47:54.673Z,68.03
2022-10-11T03:50:27.482Z,68.65
2022-10-11T03:52:57.732Z,69.02
2022-10-11T03:55:27.580Z,68.96
2022-10-11T03:57:57.327Z,68.48
2022-10-11T04:00:27.388Z,67.69
2022-10-11T04:02:57.369Z,68.18
2022-10-11T04:05:29.714Z,68.93
2022-10-11T04:07:59.988Z,69.46
2022-10-11T04:10:31.101Z,69.45
2022-10-11T04:13:01.226Z,69.35
2022-10-11T04:15:31.757Z,68.99
2022-10-11T04:18:02.145Z,68.46
2022-10-11T04:20:34.554Z,67.85
2022-10-11T04:23:04.959Z,67.54
2022-10-11T04:25:34.702Z,66.87
2022-10-11T04:28:04.448Z,66.82
2022-10-11T04:30:34.545Z,66.08
2022-10-11T04:33:04.415Z,65.71
2022-10-11T04:35:36.858Z,66.30
2022-10-11T04:38:07.061Z,66.18
2022-10-11T04:40:37.005Z,66.80
2022-10-11T04:43:06.850Z,67.01
2022-10-11T04:45:36.940Z,67.20
2022-10-11T04:48:07.164Z,67.69
2022-10-11T04:50:40.014Z,67.73
2022-10-11T04:53:10.960Z,67.60
2022-10-11T04:55:41.121Z,66.58
2022-10-11T04:58:11.233Z,66.81
2022-10-11T05:00:41.045Z,66.70
2022-10-11T05:03:10.902Z,67.16
2022-10-11T05:05:43.728Z,66.85
2022-10-11T05:08:14.928Z,66.67
2022-10-11T05:10:46.224Z,67.17
2022-10-11T05:13:16.040Z,67.17
2022-10-11T05:15:46.326Z,67.00
2022-10-11T05:18:16.237Z,67.97
2022-10-11T05:20:49.061Z,68.61
2022-10-11T05:23:19.144Z,68.90
2022-10-11T05:25:48.929Z,68.92
2022-10-11T05:28:19.166Z,68.85
2022-10-11T05:30:49.821Z,68.90
2022-10-11T05:33:19.772Z,68.39
2022-10-11T05:35:55.934Z,68.52
2022-10-11T05:38:26.213Z,68.56
2022-10-11T05:40:57.026Z,68.95
2022-10-11T05:43:26.929Z,68.19
2022-10-11T05:45:57.429Z,68.87
2022-10-11T05:48:28.750Z,69.07
2022-10-11T05:51:05.627Z,69.37
2022-10-11T05:53:36.084Z,69.60
2022-10-11T05:56:07.561Z,68.98
2022-10-11T05:58:38.570Z,69.17
2022-10-11T06:01:09.282Z,69.00
2022-10-11T06:03:39.580Z,68.89
2022-10-11T06:06:12.408Z,68.64
2022-10-11T06:08:42.714Z,68.77
2022-10-11T06:11:15.137Z,69.52
2022-10-11T06:13:46.050Z,69.67
2022-10-11T06:16:18.686Z,70.24
2022-10-11T06:18:49.580Z,70.49
2022-10-11T06:21:21.974Z,70.06
2022-10-11T06:23:58.317Z,69.64
2022-10-11T06:26:30.426Z,69.12
2022-10-11T06:29:01.063Z,69.90
2022-10-11T06:31:31.388Z,70.59
2022-10-11T06:34:02.446Z,70.40
2022-10-11T06:36:34.936Z,70.94
2022-10-11T06:39:05.452Z,71.39
2022-10-11T06:41:35.361Z,71.61
2022-10-11T06:44:05.461Z,71.60
2022-10-11T06:46:35.775Z,72.18
2022-10-11T06:49:05.742Z,71.69
2022-10-11T06:51:38.726Z,71.27
2022-10-11T06:54:09.022Z,71.09
2022-10-11T06:56:39.324Z,71.46
2022-10-11T06:59:09.446Z,70.71
2022-10-11T07:01:39.465Z,70.34
2022-10-11T07:04:09.943Z,70.42
2022-10-11T07:06:44.266Z,71.02
2022-10-11T07:09:14.678Z,70.79
2022-10-11T07:11:44.716Z,70.53
2022-10-11T07:14:15.339Z,69.51
2022-10-11T07:16:45.382Z,69.93
2022-10-11T07:19:15.469Z,70.63
2022-10-11T07:21:48.647Z,69.99
2022-10-11T07:24:18.561Z,69.32
2022-10-11T07:26:48.764Z,68.84
2022-10-11T07:29:18.553Z,68.36
2022-10-11T07:31:48.320Z,68.65
2022-10-11T07:34:20.675Z,68.49
2022-10-11T07:36:53.017Z,67.65
2022-10-11T07:39:23.178Z,67.71
2022-10-11T07:41:53.273Z,66.89
2022-10-11T07:44:27.255Z,67.43
2022-10-11T07:47:12.251Z,66.71
2022-10-11T07:49:45.062Z,66.80
2022-10-11T07:52:17.984Z,65.87
2022-10-11T07:54:51.060Z,65.01
2022-10-11T07:57:21.189Z,64.61
2022-10-11T07:59:50.962Z,64.39
2022-10-11T08:02:20.985Z,64.52
2022-10-11T08:04:50.773Z,63.91
2022-10-11T08:08:15.391Z,63.13
2022-10-11T08:11:07.269Z,63.71
2022-10-11T08:13:38.021Z,63.88
2022-10-11T08:16:15.525Z,63.02
2022-10-11T08:18:45.842Z,61.59
2022-10-11T08:21:18.582Z,60.84
2022-10-11T08:23:49.208Z,59.80
2022-10-11T08:26:21.893Z,59.31
2022-10-11T08:28:52.357Z,58.81
2022-10-11T08:31:22.700Z,58.29
2022-10-11T08:33:53.129Z,57.89
2022-10-11T08:36:22.979Z,57.69
2022-10-11T08:38:52.684Z,57.33
2022-10-11T08:41:33.063Z,56.11
2022-10-11T08:44:19.040Z,55.73
2022-10-11T08:46:58.167Z,53.96
2022-10-11T08:52:49.005Z,54.19
2022-10-11T08:55:22.749Z,54.14
2022-10-11T08:57:58.681Z,54.00
2022-10-11T09:00:34.152Z,53.07
2022-10-11T09:03:13.650Z,52.33
2022-10-11T09:05:58.717Z,50.93
2022-10-11T09:08:47.676Z,50.84
2022-10-11T09:11:28.570Z,52.25
2022-10-11T09:14:17.466Z,51.66
2022-10-11T09:17:00.633Z,51.78
2022-10-11T09:19:47.001Z,51.10
2022-10-11T09:22:30.395Z,48.75
2022-10-11T09:25:18.156Z,48.11
2022-10-11T09:28:02.740Z,47.50
2022-10-11T09:30:36.759Z,46.78
2022-10-11T09:33:16.093Z,46.00
2022-10-11T09:35:49.864Z,45.64
2022-10-11T09:38:41.556Z,45.42
2022-10-11T09:41:17.628Z,45.26
2022-10-11T09:43:50.364Z,46.97
2022-10-11T09:46:36.117Z,45.83
2022-10-11T09:49:15.061Z,47.19
2022-10-11T09:51:51.321Z,47.23
2022-10-11T09:54:28.158Z,47.70
2022-10-11T09:56:58.429Z,46.86
2022-10-11T09:59:31.604Z,45.30
2022-10-11T10:02:24.448Z,44.83
2022-10-11T10:05:17.575Z,45.38
2022-10-11T10:08:20.516Z,44.75
2022-10-11T10:11:00.738Z,43.01
2022-10-11T10:13:37.502Z,41.86
2022-10-11T10:16:11.780Z,43.05
2022-10-11T10:18:52.041Z,43.33
2022-10-11T10:21:31.316Z,41.11
2022-10-11T10:24:04.796Z,41.12
2022-10-11T10:26:36.267Z,40.35
2022-10-11T10:29:20.599Z,40.51
2022-10-11T10:34:59.757Z,40.96
2022-10-11T10:37:35.263Z,40.53
2022-10-11T10:40:10.009Z,39.05
2022-10-11T10:42:40.736Z,38.95
2022-10-11T10:45:21.571Z,38.77
2022-10-11T10:48:04.548Z,38.35
2022-10-11T10:50:52.389Z,37.29
2022-10-11T10:54:09.263Z,36.30
2022-10-11T10:56:48.342Z,35.38
2022-10-11T10:59:45.008Z,35.72
2022-10-11T11:02:40.787Z,34.15
2022-10-11T11:05:21.150Z,36.01
2022-10-11T11:08:01.139Z,36.07
2022-10-11T11:10:39.216Z,34.39
2022-10-11T11:13:21.587Z,35.17
2022-10-11T11:15:58.448Z,34.87
2022-10-11T11:18:37.231Z,34.50
2022-10-11T11:21:31.722Z,34.57
2022-10-11T11:24:14.047Z,34.61
2022-10-11T11:26:52.423Z,36.20
2022-10-11T11:29:40.776Z,35.31
2022-10-11T11:32:20.244Z,35.39
2022-10-11T11:34:58.408Z,35.53
2022-10-11T11:40:55.401Z,34.04
2022-10-11T11:43:32.666Z,33.19
2022-10-11T11:46:09.600Z,33.26
2022-10-11T11:48:40.773Z,33.57
2022-10-11T11:51:17.731Z,32.93
2022-10-11T11:53:57.038Z,32.31
2022-10-11T11:56:44.831Z,31.35
2022-10-11T11:59:23.171Z,30.15
2022-10-11T12:02:02.753Z,31.18
2022-10-11T12:04:37.685Z,31.79
2022-10-11T12:07:16.279Z,31.39
2022-10-11T12:09:50.637Z,31.73
2022-10-11T12:12:36.962Z,30.71
2022-10-11T12:15:21.861Z,29.88
2022-10-11T12:18:08.052Z,30.22
2022-10-11T12:20:41.584Z,29.25
2022-10-11T12:23:50.118Z,30.23
2022-10-11T12:26:45.707Z,29.55
2022-10-11T12:29:49.653Z,28.43
2022-10-11T12:32:53.660Z,29.13
2022-10-11T12:35:44.015Z,31.11
2022-10-11T12:38:22.826Z,31.19
2022-10-11T12:40:54.946Z,30.67
2022-10-11T12:43:36.184Z,31.21
2022-10-11T12:46:37.176Z,31.68
2022-10-11T12:49:40.281Z,31.22
2022-10-11T12:52:27.637Z,31.61
2022-10-11T12:55:29.075Z,31.72
2022-10-11T12:58:38.333Z,32.43
2022-10-11T13:01:24.471Z,32.03
2022-10-11T13:04:08.165Z,32.48
2022-10-11T13:06:48.887Z,33.45
2022-10-11T13:09:30.263Z,33.29
2022-10-11T13:12:06.487Z,33.64
2022-10-11T13:14:39.819Z,32.91
2022-10-11T13:17:19.113Z,32.51
2022-10-11T13:19:49.242Z,32.33
2022-10-11T13:22:25.788Z,31.87
2022-10-11T13:25:01.154Z,31.63
2022-10-11T13:27:31.937Z,31.43
2022-10-11T13:30:04.203Z,31.04
2022-10-11T13:32:36.100Z,30.43
2022-10-11T13:35:10.404Z,29.46
2022-10-11T13:37:48.130Z,30.00
2022-10-11T13:40:21.167Z,31.14
2022-10-11T13:42:52.864Z,30.52
2022-10-11T13:45:25.388Z,30.24
2022-10-11T13:48:44.456Z,30.99
2022-10-11T13:51:19.600Z,30.77
2022-10-11T13:54:13.728Z,29.78
2022-10-11T13:56:48.738Z,30.06
2022-10-11T13:59:21.440Z,30.56
2022-10-11T14:01:53.312Z,29.59
2022-10-11T14:04:28.694Z,29.53
2022-10-11T14:07:02.597Z,29.03
2022-10-11T14:09:46.413Z,29.12
2022-10-11T14:12:35.552Z,29.05
2022-10-11T14:15:40.990Z,29.29
2022-10-11T14:18:49.281Z,28.55
2022-10-11T14:21:31.503Z,29.12
2022-10-11T14:24:04.969Z,28.22
2022-10-11T14:26:39.563Z,28.25
2022-10-11T14:29:15.344Z,28.00
2022-10-11T14:31:45.907Z,28.36
2022-10-11T14:34:20.729Z,29.05
2022-10-11T14:36:53.134Z,28.30
2022-10-11T14:39:25.997Z,28.18
2022-10-11T14:41:59.118Z,28.17
2022-10-11T14:44:29.004Z,28.37
2022-10-11T14:46:59.410Z,28.73
2022-10-11T14:49:32.319Z,28.01
2022-10-11T14:52:02.576Z,27.92
2022-10-11T14:54:33.482Z,28.09
2022-10-11T14:57:06.887Z,28.47
2022-10-11T14:59:39.336Z,28.72
2022-10-11T15:02:11.378Z,29.28
2022-10-11T15:04:41.429Z,29.18
2022-10-11T15:07:15.041Z,29.21
2022-10-11T15:09:44.994Z,29.93
2022-10-11T15:12:17.746Z,29.58
2022-10-11T15:14:47.624Z,29.62
2022-10-11T15:17:21.686Z,29.43
2022-10-11T15:19:51.928Z,29.74
2022-10-11T15:22:22.312Z,29.48
2022-10-11T15:24:52.137Z,29.49
2022-10-11T15:27:27.257Z,28.97
2022-10-11T15:29:57.811Z,29.05
2022-10-11T15:32:28.836Z,28.47
2022-10-11T15:34:59.077Z,27.96
2022-10-11T15:37:30.208Z,28.19
2022-10-11T15:40:01.963Z,28.17
2022-10-11T15:42:34.472Z,28.42
2022-10-11T15:45:04.663Z,28.30
2022-10-11T15:47:34.552Z,28.59
2022-10-11T15:50:04.957Z,29.49
2022-10-11T15:52:41.769Z,29.19
2022-10-11T15:55:11.984Z,29.68
2022-10-11T15:57:44.682Z,29.99
2022-10-11T16:00:22.074Z,30.01
2022-10-11T16:02:53.783Z,30.51
2022-10-11T16:05:26.180Z,30.95
2022-10-11T16:07:56.747Z,31.18
2022-10-11T16:10:27.059Z,31.24
2022-10-11T16:12:59.566Z,31.45
2022-10-11T16:15:29.766Z,31.63
2022-10-11T16:17:59.764Z,31.84
2022-10-11T16:20:30.061Z,31.53
2022-10-11T16:23:00.381Z,31.72
2022-10-11T16:25:30.551Z,31.86
2022-10-11T16:28:03.283Z,32.21
2022-10-11T16:30:34.057Z,32.61
2022-10-11T16:33:03.888Z,33.04
2022-10-11T16:35:34.478Z,33.01
2022-10-11T16:38:04.403Z,32.80
2022-10-11T16:40:36.017Z,33.20
2022-10-11T16:43:09.119Z,33.33
2022-10-11T16:45:40.213Z,33.52
2022-10-11T16:48:10.475Z,33.16
2022-10-11T16:51:02.904Z,33.56
2022-10-11T16:53:36.322Z,33.37
2022-10-11T16:56:09.132Z,33.80
2022-10-11T16:58:41.900Z,33.97
2022-10-11T17:01:14.251Z,34.18
2022-10-11T17:03:44.184Z,34.31
2022-10-11T17:06:14.937Z,34.65
2022-10-11T17:08:45.895Z,34.68
2022-10-11T17:11:23.757Z,34.75
2022-10-11T17:14:02.374Z,34.27
2022-10-11T17:17:03.683Z,34.85
2022-10-11T17:19:35.831Z,35.12
2022-10-11T17:22:10.492Z,35.48
2022-10-11T17:24:42.998Z,36.01
2022-10-11T17:30:32.419Z,36.47
2022-10-11T17:33:03.582Z,36.43
2022-10-11T17:35:35.944Z,36.44
2022-10-11T17:38:20.978Z,36.83
2022-10-11T17:41:09.348Z,36.55
2022-10-11T17:43:54.299Z,36.51
2022-10-11T17:46:52.934Z,36.59
2022-10-11T17:49:58.526Z,36.40
2022-10-11T17:52:38.306Z,36.87
2022-10-11T17:55:11.275Z,36.69
2022-10-11T17:57:41.690Z,35.71
2022-10-11T18:00:42.987Z,37.11
2022-10-11T18:07:11.339Z,38.77
2022-10-11T18:09:42.475Z,38.70
2022-10-11T18:12:13.624Z,37.94
2022-10-11T18:18:03.018Z,38.43
2022-10-11T18:20:41.916Z,39.64
2022-10-11T18:23:17.424Z,39.93
2022-10-11T18:29:19.326Z,40.72
2022-10-11T18:32:04.520Z,40.84
2022-10-11T18:38:10.972Z,40.76
2022-10-11T18:40:47.280Z,40.77
2022-10-11T18:43:56.135Z,40.95
2022-10-11T18:46:36.328Z,41.19
2022-10-11T18:49:07.487Z,40.49
2022-10-11T18:51:58.975Z,40.26
2022-10-11T18:54:37.609Z,40.10
2022-10-11T19:00:40.365Z,41.17
2022-10-11T19:06:26.087Z,41.65
2022-10-11T19:09:08.320Z,41.97
2022-10-11T19:11:59.227Z,42.09
2022-10-11T19:14:35.372Z,42.11
2022-10-11T19:17:07.219Z,42.40
2022-10-11T19:19:38.971Z,42.54
2022-10-11T19:22:10.823Z,42.64
2022-10-11T19:24:45.747Z,42.25
2022-10-11T19:27:18.482Z,42.77
2022-10-11T19:29:48.875Z,42.68
2022-10-11T19:32:18.938Z,42.61
2022-10-11T19:34:49.413Z,42.97
2022-10-11T19:37:19.185Z,43.08
2022-10-11T19:39:49.377Z,43.00
2022-10-11T19:42:22.262Z,43.15
2022-10-11T19:44:52.686Z,43.59
2022-10-11T19:47:23.032Z,43.23
2022-10-11T19:49:53.250Z,43.24
2022-10-11T19:52:23.151Z,42.93
2022-10-11T19:54:53.336Z,43.16
2022-10-11T19:57:26.602Z,43.60
2022-10-11T19:59:56.901Z,43.33
2022-10-11T20:03:11.201Z,43.74
2022-10-11T20:05:41.352Z,44.24
2022-10-11T20:08:11.284Z,44.40
2022-10-11T20:10:41.527Z,44.16
2022-10-11T20:13:14.389Z,44.24
2022-10-11T20:15:44.636Z,44.33
2022-10-11T20:18:14.636Z,44.40
2022-10-11T20:20:54.104Z,44.64
2022-10-11T20:23:27.618Z,44.90
2022-10-11T20:26:02.587Z,44.51
2022-10-11T20:28:36.238Z,44.57
2022-10-11T20:35:26.580Z,44.89
2022-10-11T20:37:56.640Z,45.20
2022-10-11T20:40:26.348Z,45.09
2022-10-11T20:42:56.665Z,45.75
2022-10-11T20:45:29.212Z,45.71
2022-10-11T20:47:59.404Z,46.00
2022-10-11T20:50:29.179Z,46.17
2022-10-11T20:52:59.474Z,47.32
2022-10-11T20:55:29.846Z,47.33
2022-10-11T20:57:59.942Z,47.02
2022-10-11T21:00:32.404Z,47.40
2022-10-11T21:03:02.500Z,48.23
2022-10-11T21:05:32.260Z,48.66
2022-10-11T21:08:02.288Z,48.50
2022-10-11T21:10:32.444Z,48.59
2022-10-11T21:13:02.881Z,48.01
2022-10-11T21:15:35.398Z,48.43
2022-10-11T21:21:17.206Z,48.46
2022-10-11T21:23:47.297Z,48.27
2022-10-11T21:26:18.650Z,48.47
2022-10-11T21:28:49.057Z,48.01
2022-10-11T21:31:23.324Z,47.96
2022-10-11T21:33:56.591Z,47.96
2022-10-11T21:36:26.963Z,47.91
2022-10-11T21:38:57.730Z,47.64
2022-10-11T21:41:30.071Z,47.67
2022-10-11T21:44:00.965Z,48.10
2022-10-11T21:49:26.015Z,47.37
2022-10-11T21:51:56.013Z,47.64
2022-10-11T21:54:26.051Z,48.17
2022-10-11T21:56:55.827Z,48.79
2022-10-11T21:59:25.566Z,48.65
2022-10-11T22:02:01.915Z,48.96
2022-10-11T22:04:32.171Z,48.60
2022-10-11T22:07:02.275Z,48.83
2022-10-11T22:09:35.035Z,49.35
2022-10-11T22:12:06.076Z,49.55
2022-10-11T22:14:36.013Z,49.53
2022-10-11T22:17:08.704Z,49.61
2022-10-11T22:19:38.585Z,49.66
2022-10-11T22:22:08.685Z,49.57
2022-10-11T22:24:38.509Z,49.28
2022-10-11T22:27:08.278Z,49.77
2022-10-11T22:29:38.402Z,49.51
2022-10-11T22:32:10.925Z,49.63
2022-10-11T22:34:41.060Z,49.51
2022-10-11T22:37:11.053Z,49.22
2022-10-11T22:39:41.234Z,49.20
2022-10-11T22:42:10.961Z,48.78
2022-10-11T22:44:40.741Z,48.90
2022-10-11T22:47:13.795Z,49.34
2022-10-11T22:49:43.866Z,50.64
2022-10-11T22:52:14.001Z,52.59
2022-10-11T22:54:43.821Z,52.02
2022-10-11T22:57:13.634Z,51.95
2022-10-11T22:59:43.703Z,52.01
2022-10-11T23:02:16.128Z,51.99
2022-10-11T23:04:46.594Z,52.06
2022-10-11T23:07:16.559Z,51.35
2022-10-11T23:09:46.430Z,51.09
2022-10-11T23:12:16.637Z,51.05
2022-10-11T23:14:46.767Z,50.86
2022-10-11T23:17:20.996Z,50.56
2022-10-11T23:19:51.110Z,50.46
2022-10-11T23:22:21.626Z,50.21
2022-10-11T23:24:51.385Z,50.22
2022-10-11T23:27:21.141Z,50.17
2022-10-11T23:29:51.265Z,49.68
2022-10-11T23:32:23.671Z,49.71
2022-10-11T23:34:54.102Z,49.76
2022-10-11T23:37:24.049Z,49.56
2022-10-11T23:39:54.108Z,49.92
2022-10-11T23:42:23.886Z,49.75
2022-10-11T23:44:54.270Z,49.71
2022-10-11T23:47:27.063Z,49.71
2022-10-11T23:49:56.778Z,49.91
2022-10-11T23:52:27.005Z,49.87
2022-10-11T23:54:56.839Z,49.99
2022-10-11T23:57:26.587Z,49.97
2022-10-11T23:59:56.634Z,49.87
